sensor_id;sensor_type;location;lat;lon;timestamp;pressure;altitude;pressure_sealevel;temperature;humidity
19114;BME280;9689;51.052;13.772;2023-07-30T00:04:37;99722.44;;;16.57;89.49
19114;BME280;9689;51.052;13.772;2023-07-30T00:09:38;99727.28;;;16.65;88.65
19114;BME280;9689;51.052;13.772;2023-07-30T00:14:39;99717.59;;;16.50;88.84
19114;BME280;9689;51.052;13.772;2023-07-30T00:19:41;99711.22;;;16.38;88.67
19114;BME280;9689;51.052;13.772;2023-07-30T00:24:41;99729.88;;;16.33;89.24
19114;BME280;9689;51.052;13.772;2023-07-30T00:29:42;99724.97;;;16.43;88.96
19114;BME280;9689;51.052;13.772;2023-07-30T00:34:44;99712.50;;;16.47;87.92
19114;BME280;9689;51.052;13.772;2023-07-30T00:39:45;99720.03;;;16.37;88.98
19114;BME280;9689;51.052;13.772;2023-07-30T00:44:46;99717.31;;;16.38;87.80
19114;BME280;9689;51.052;13.772;2023-07-30T00:49:48;99719.75;;;16.26;89.25
19114;BME280;9689;51.052;13.772;2023-07-30T00:54:49;99719.34;;;16.33;88.68
19114;BME280;9689;51.052;13.772;2023-07-30T00:59:52;99705.63;;;16.44;88.52
19114;BME280;9689;51.052;13.772;2023-07-30T01:04:54;99700.59;;;16.39;87.81
19114;BME280;9689;51.052;13.772;2023-07-30T01:09:56;99701.09;;;16.30;88.67
19114;BME280;9689;51.052;13.772;2023-07-30T01:14:58;99697.56;;;16.47;87.33
19114;BME280;9689;51.052;13.772;2023-07-30T01:20:01;99705.69;;;16.27;87.49
19114;BME280;9689;51.052;13.772;2023-07-30T01:25:04;99707.59;;;16.23;88.44
19114;BME280;9689;51.052;13.772;2023-07-30T01:30:18;99710.03;;;16.10;88.33
19114;BME280;9689;51.052;13.772;2023-07-30T01:35:25;99724.06;;;15.94;89.61
19114;BME280;9689;51.052;13.772;2023-07-30T01:40:28;99724.13;;;16.09;89.28
19114;BME280;9689;51.052;13.772;2023-07-30T01:45:29;99730.66;;;16.18;88.88
19114;BME280;9689;51.052;13.772;2023-07-30T01:50:30;99736.00;;;16.17;89.06
19114;BME280;9689;51.052;13.772;2023-07-30T01:55:32;99740.66;;;16.11;88.79
19114;BME280;9689;51.052;13.772;2023-07-30T02:00:33;99750.50;;;16.24;87.83
19114;BME280;9689;51.052;13.772;2023-07-30T02:05:37;99742.34;;;16.13;88.59
19114;BME280;9689;51.052;13.772;2023-07-30T02:10:40;99737.81;;;15.99;88.83
19114;BME280;9689;51.052;13.772;2023-07-30T02:15:40;99732.69;;;15.96;89.85
19114;BME280;9689;51.052;13.772;2023-07-30T02:20:42;99724.81;;;15.78;89.73
19114;BME280;9689;51.052;13.772;2023-07-30T02:25:44;99729.16;;;15.79;89.40
19114;BME280;9689;51.052;13.772;2023-07-30T02:30:45;99730.84;;;15.80;90.09
19114;BME280;9689;51.052;13.772;2023-07-30T02:35:46;99729.16;;;15.79;89.77
19114;BME280;9689;51.052;13.772;2023-07-30T02:40:48;99737.47;;;16.05;89.27
19114;BME280;9689;51.052;13.772;2023-07-30T02:45:49;99750.41;;;16.09;88.88
19114;BME280;9689;51.052;13.772;2023-07-30T02:50:50;99753.31;;;16.21;88.21
19114;BME280;9689;51.052;13.772;2023-07-30T02:55:52;99757.72;;;16.20;87.43
19114;BME280;9689;51.052;13.772;2023-07-30T03:00:52;99744.28;;;16.26;88.13
19114;BME280;9689;51.052;13.772;2023-07-30T03:05:53;99751.31;;;16.42;88.30
19114;BME280;9689;51.052;13.772;2023-07-30T03:10:58;99752.91;;;16.61;86.76
19114;BME280;9689;51.052;13.772;2023-07-30T03:15:59;99753.69;;;16.63;87.01
19114;BME280;9689;51.052;13.772;2023-07-30T03:21:00;99748.66;;;16.43;86.68
19114;BME280;9689;51.052;13.772;2023-07-30T03:26:02;99745.78;;;16.30;88.41
19114;BME280;9689;51.052;13.772;2023-07-30T03:31:03;99723.03;;;16.62;87.10
19114;BME280;9689;51.052;13.772;2023-07-30T03:36:04;99723.50;;;16.71;86.91
19114;BME280;9689;51.052;13.772;2023-07-30T03:41:06;99724.75;;;16.63;87.20
19114;BME280;9689;51.052;13.772;2023-07-30T03:46:08;99733.00;;;16.73;86.93
19114;BME280;9689;51.052;13.772;2023-07-30T03:51:09;99747.28;;;16.85;85.70
19114;BME280;9689;51.052;13.772;2023-07-30T03:56:11;99742.78;;;16.71;85.94
19114;BME280;9689;51.052;13.772;2023-07-30T04:01:12;99749.91;;;16.69;86.95
19114;BME280;9689;51.052;13.772;2023-07-30T04:06:14;99760.25;;;16.72;86.22
19114;BME280;9689;51.052;13.772;2023-07-30T04:11:16;99757.56;;;16.56;87.99
19114;BME280;9689;51.052;13.772;2023-07-30T04:16:17;99743.88;;;16.34;88.40
19114;BME280;9689;51.052;13.772;2023-07-30T04:21:18;99758.41;;;16.24;90.62
19114;BME280;9689;51.052;13.772;2023-07-30T04:26:20;99752.78;;;16.47;90.68
19114;BME280;9689;51.052;13.772;2023-07-30T04:31:21;99758.09;;;16.63;91.01
19114;BME280;9689;51.052;13.772;2023-07-30T04:36:22;99751.53;;;16.72;89.49
19114;BME280;9689;51.052;13.772;2023-07-30T04:41:25;99749.06;;;16.84;88.64
19114;BME280;9689;51.052;13.772;2023-07-30T04:46:29;99751.88;;;16.81;88.44
19114;BME280;9689;51.052;13.772;2023-07-30T04:51:31;99753.41;;;16.70;88.61
19114;BME280;9689;51.052;13.772;2023-07-30T04:56:34;99747.88;;;16.90;88.83
19114;BME280;9689;51.052;13.772;2023-07-30T05:01:35;99738.63;;;16.99;87.12
19114;BME280;9689;51.052;13.772;2023-07-30T05:06:36;99742.34;;;17.10;87.53
19114;BME280;9689;51.052;13.772;2023-07-30T05:11:38;99743.81;;;17.32;86.14
19114;BME280;9689;51.052;13.772;2023-07-30T05:16:39;99746.63;;;17.59;84.53
19114;BME280;9689;51.052;13.772;2023-07-30T05:21:40;99739.44;;;17.92;83.31
19114;BME280;9689;51.052;13.772;2023-07-30T05:26:42;99742.47;;;18.15;81.72
19114;BME280;9689;51.052;13.772;2023-07-30T05:31:43;99748.88;;;18.11;82.51
19114;BME280;9689;51.052;13.772;2023-07-30T05:36:44;99754.25;;;18.23;81.70
19114;BME280;9689;51.052;13.772;2023-07-30T05:41:46;99758.50;;;18.40;81.12
19114;BME280;9689;51.052;13.772;2023-07-30T05:46:47;99773.16;;;18.60;81.10
19114;BME280;9689;51.052;13.772;2023-07-30T05:51:47;99770.50;;;18.74;79.64
19114;BME280;9689;51.052;13.772;2023-07-30T05:56:49;99769.84;;;18.85;79.42
19114;BME280;9689;51.052;13.772;2023-07-30T06:01:50;99776.25;;;18.95;78.91
19114;BME280;9689;51.052;13.772;2023-07-30T06:06:51;99782.19;;;18.99;77.93
19114;BME280;9689;51.052;13.772;2023-07-30T06:11:55;99771.34;;;19.03;78.16
19114;BME280;9689;51.052;13.772;2023-07-30T06:16:57;99766.97;;;19.02;78.47
19114;BME280;9689;51.052;13.772;2023-07-30T06:21:58;99773.25;;;19.28;77.97
19114;BME280;9689;51.052;13.772;2023-07-30T06:27:00;99769.81;;;19.40;77.02
19114;BME280;9689;51.052;13.772;2023-07-30T06:32:01;99772.03;;;19.61;75.54
19114;BME280;9689;51.052;13.772;2023-07-30T06:37:01;99778.81;;;19.65;74.97
19114;BME280;9689;51.052;13.772;2023-07-30T06:42:04;99784.47;;;19.73;74.43
19114;BME280;9689;51.052;13.772;2023-07-30T06:47:06;99787.75;;;19.89;74.10
19114;BME280;9689;51.052;13.772;2023-07-30T06:52:07;99782.06;;;19.95;73.80
19114;BME280;9689;51.052;13.772;2023-07-30T06:57:09;99791.97;;;19.79;74.93
19114;BME280;9689;51.052;13.772;2023-07-30T07:02:10;99791.00;;;20.20;73.46
19114;BME280;9689;51.052;13.772;2023-07-30T07:07:11;99794.91;;;20.40;72.36
19114;BME280;9689;51.052;13.772;2023-07-30T07:12:13;99792.97;;;20.43;72.19
19114;BME280;9689;51.052;13.772;2023-07-30T07:17:14;99800.78;;;20.45;72.54
19114;BME280;9689;51.052;13.772;2023-07-30T07:22:14;99803.34;;;20.59;72.12
19114;BME280;9689;51.052;13.772;2023-07-30T07:27:18;99799.47;;;20.76;71.32
19114;BME280;9689;51.052;13.772;2023-07-30T07:32:19;99797.00;;;21.11;70.03
19114;BME280;9689;51.052;13.772;2023-07-30T07:37:20;99799.72;;;21.35;69.33
19114;BME280;9689;51.052;13.772;2023-07-30T07:42:22;99803.78;;;21.76;67.51
19114;BME280;9689;51.052;13.772;2023-07-30T07:47:23;99796.59;;;22.13;66.45
19114;BME280;9689;51.052;13.772;2023-07-30T07:52:23;99810.44;;;22.63;65.30
19114;BME280;9689;51.052;13.772;2023-07-30T07:57:26;99800.47;;;22.89;63.76
19114;BME280;9689;51.052;13.772;2023-07-30T08:02:26;99805.78;;;22.89;62.88
19114;BME280;9689;51.052;13.772;2023-07-30T08:07:27;99794.38;;;22.53;64.62
19114;BME280;9689;51.052;13.772;2023-07-30T08:12:31;99783.34;;;22.24;65.88
19114;BME280;9689;51.052;13.772;2023-07-30T08:17:32;99783.78;;;22.07;65.29
19114;BME280;9689;51.052;13.772;2023-07-30T08:22:33;99790.25;;;22.02;66.11
19114;BME280;9689;51.052;13.772;2023-07-30T08:27:36;99776.94;;;22.15;64.84
19114;BME280;9689;51.052;13.772;2023-07-30T08:32:37;99778.31;;;22.43;63.81
19114;BME280;9689;51.052;13.772;2023-07-30T08:37:39;99780.66;;;23.04;60.75
19114;BME280;9689;51.052;13.772;2023-07-30T08:42:41;99778.44;;;23.20;58.58
19114;BME280;9689;51.052;13.772;2023-07-30T08:47:42;99775.09;;;23.50;57.30
19114;BME280;9689;51.052;13.772;2023-07-30T08:52:43;99777.13;;;23.15;58.03
19114;BME280;9689;51.052;13.772;2023-07-30T08:57:46;99760.69;;;23.53;57.10
19114;BME280;9689;51.052;13.772;2023-07-30T09:02:48;99764.84;;;23.46;57.38
19114;BME280;9689;51.052;13.772;2023-07-30T09:07:50;99758.84;;;23.96;56.99
19114;BME280;9689;51.052;13.772;2023-07-30T09:12:54;99744.88;;;24.04;55.56
19114;BME280;9689;51.052;13.772;2023-07-30T09:17:55;99751.97;;;24.36;54.91
19114;BME280;9689;51.052;13.772;2023-07-30T09:22:57;99753.53;;;24.38;52.57
19114;BME280;9689;51.052;13.772;2023-07-30T09:27:59;99763.78;;;24.43;52.92
19114;BME280;9689;51.052;13.772;2023-07-30T09:33:00;99754.25;;;24.71;52.90
19114;BME280;9689;51.052;13.772;2023-07-30T09:38:02;99756.38;;;24.25;53.41
19114;BME280;9689;51.052;13.772;2023-07-30T09:43:05;99751.34;;;24.53;53.17
19114;BME280;9689;51.052;13.772;2023-07-30T09:48:06;99756.03;;;24.40;54.30
19114;BME280;9689;51.052;13.772;2023-07-30T09:53:09;99760.34;;;25.52;50.84
19114;BME280;9689;51.052;13.772;2023-07-30T09:58:11;99757.97;;;25.68;49.70
19114;BME280;9689;51.052;13.772;2023-07-30T10:03:12;99764.03;;;25.80;48.86
19114;BME280;9689;51.052;13.772;2023-07-30T10:08:19;99757.69;;;25.61;48.43
19114;BME280;9689;51.052;13.772;2023-07-30T10:13:23;99752.84;;;25.07;49.38
19114;BME280;9689;51.052;13.772;2023-07-30T10:18:32;99762.41;;;24.48;51.19
19114;BME280;9689;51.052;13.772;2023-07-30T10:23:33;99756.41;;;24.87;50.31
19114;BME280;9689;51.052;13.772;2023-07-30T10:28:35;99764.00;;;25.01;50.07
19114;BME280;9689;51.052;13.772;2023-07-30T10:33:46;99757.94;;;24.89;50.43
19114;BME280;9689;51.052;13.772;2023-07-30T10:38:47;99762.69;;;24.76;50.48
19114;BME280;9689;51.052;13.772;2023-07-30T10:43:50;99749.91;;;24.70;50.90
19114;BME280;9689;51.052;13.772;2023-07-30T10:48:53;99754.94;;;24.73;50.60
19114;BME280;9689;51.052;13.772;2023-07-30T10:53:54;99755.28;;;24.89;50.29
19114;BME280;9689;51.052;13.772;2023-07-30T10:58:57;99745.44;;;24.80;49.81
19114;BME280;9689;51.052;13.772;2023-07-30T11:03:58;99743.75;;;24.79;49.97
19114;BME280;9689;51.052;13.772;2023-07-30T11:08:59;99747.28;;;24.89;49.88
19114;BME280;9689;51.052;13.772;2023-07-30T11:14:01;99749.63;;;25.03;48.48
19114;BME280;9689;51.052;13.772;2023-07-30T11:19:07;99737.75;;;25.46;47.57
19114;BME280;9689;51.052;13.772;2023-07-30T11:24:08;99730.44;;;25.58;45.98
19114;BME280;9689;51.052;13.772;2023-07-30T11:29:17;99710.38;;;25.73;44.63
19114;BME280;9689;51.052;13.772;2023-07-30T11:34:18;99717.78;;;25.70;44.45
19114;BME280;9689;51.052;13.772;2023-07-30T11:39:19;99716.81;;;25.42;42.12
19114;BME280;9689;51.052;13.772;2023-07-30T11:44:33;99716.66;;;25.43;42.01
19114;BME280;9689;51.052;13.772;2023-07-30T11:49:34;99715.97;;;25.41;39.46
19114;BME280;9689;51.052;13.772;2023-07-30T11:54:35;99709.66;;;25.42;40.92
19114;BME280;9689;51.052;13.772;2023-07-30T11:59:38;99709.66;;;25.61;39.44
19114;BME280;9689;51.052;13.772;2023-07-30T12:04:44;99705.19;;;25.72;40.23
19114;BME280;9689;51.052;13.772;2023-07-30T12:10:06;99681.50;;;26.15;38.81
19114;BME280;9689;51.052;13.772;2023-07-30T12:15:11;99681.63;;;26.14;38.93
19114;BME280;9689;51.052;13.772;2023-07-30T12:20:12;99669.38;;;26.21;37.12
19114;BME280;9689;51.052;13.772;2023-07-30T12:25:13;99672.63;;;26.15;35.82
19114;BME280;9689;51.052;13.772;2023-07-30T12:30:16;99670.78;;;26.25;35.58
19114;BME280;9689;51.052;13.772;2023-07-30T12:35:17;99652.16;;;26.43;35.67
19114;BME280;9689;51.052;13.772;2023-07-30T12:40:18;99657.25;;;26.64;36.11
19114;BME280;9689;51.052;13.772;2023-07-30T12:45:20;99650.50;;;26.42;36.36
19114;BME280;9689;51.052;13.772;2023-07-30T12:50:21;99666.56;;;26.60;35.76
19114;BME280;9689;51.052;13.772;2023-07-30T12:55:22;99667.63;;;26.39;36.75
19114;BME280;9689;51.052;13.772;2023-07-30T13:00:24;99658.72;;;26.48;36.56
19114;BME280;9689;51.052;13.772;2023-07-30T13:05:25;99660.66;;;26.56;36.56
19114;BME280;9689;51.052;13.772;2023-07-30T13:10:26;99657.66;;;26.69;36.40
19114;BME280;9689;51.052;13.772;2023-07-30T13:15:28;99664.47;;;26.81;36.62
19114;BME280;9689;51.052;13.772;2023-07-30T13:20:29;99657.50;;;26.70;35.14
19114;BME280;9689;51.052;13.772;2023-07-30T13:25:31;99653.75;;;26.63;36.36
19114;BME280;9689;51.052;13.772;2023-07-30T13:30:33;99649.03;;;27.20;35.61
19114;BME280;9689;51.052;13.772;2023-07-30T13:35:33;99641.78;;;27.13;35.20
19114;BME280;9689;51.052;13.772;2023-07-30T13:40:34;99645.88;;;27.07;35.28
19114;BME280;9689;51.052;13.772;2023-07-30T13:45:36;99628.56;;;27.11;34.85
19114;BME280;9689;51.052;13.772;2023-07-30T13:50:37;99640.69;;;27.06;34.73
19114;BME280;9689;51.052;13.772;2023-07-30T13:55:38;99639.53;;;27.08;34.24
19114;BME280;9689;51.052;13.772;2023-07-30T14:00:41;99627.47;;;27.04;34.80
19114;BME280;9689;51.052;13.772;2023-07-30T14:05:42;99637.97;;;26.88;35.37
19114;BME280;9689;51.052;13.772;2023-07-30T14:10:43;99649.81;;;26.85;35.01
19114;BME280;9689;51.052;13.772;2023-07-30T14:15:46;99643.59;;;27.12;34.29
19114;BME280;9689;51.052;13.772;2023-07-30T14:20:46;99640.28;;;27.36;34.80
19114;BME280;9689;51.052;13.772;2023-07-30T14:25:50;99640.81;;;27.57;33.77
19114;BME280;9689;51.052;13.772;2023-07-30T14:30:52;99636.34;;;26.49;35.68
19114;BME280;9689;51.052;13.772;2023-07-30T14:35:53;99638.31;;;26.20;36.74
19114;BME280;9689;51.052;13.772;2023-07-30T14:40:54;99650.69;;;25.74;37.44
19114;BME280;9689;51.052;13.772;2023-07-30T14:45:57;99646.19;;;25.55;37.92
19114;BME280;9689;51.052;13.772;2023-07-30T14:50:58;99650.38;;;25.19;38.72
19114;BME280;9689;51.052;13.772;2023-07-30T14:55:59;99647.84;;;24.98;39.32
19114;BME280;9689;51.052;13.772;2023-07-30T15:01:02;99641.94;;;24.95;39.54
19114;BME280;9689;51.052;13.772;2023-07-30T15:06:03;99664.78;;;24.78;41.25
19114;BME280;9689;51.052;13.772;2023-07-30T15:11:04;99691.44;;;24.17;45.28
19114;BME280;9689;51.052;13.772;2023-07-30T15:16:06;99725.09;;;22.90;52.76
19114;BME280;9689;51.052;13.772;2023-07-30T15:21:09;99819.69;;;21.15;65.49
19114;BME280;9689;51.052;13.772;2023-07-30T15:26:10;99824.72;;;19.64;75.17
19114;BME280;9689;51.052;13.772;2023-07-30T15:31:12;99843.03;;;18.97;80.12
19114;BME280;9689;51.052;13.772;2023-07-30T15:36:13;99839.19;;;18.58;84.15
19114;BME280;9689;51.052;13.772;2023-07-30T15:41:23;99842.94;;;18.70;84.23
19114;BME280;9689;51.052;13.772;2023-07-30T15:46:25;99839.00;;;18.47;84.85
19114;BME280;9689;51.052;13.772;2023-07-30T15:51:26;99841.63;;;18.47;84.74
19114;BME280;9689;51.052;13.772;2023-07-30T15:56:28;99845.41;;;18.57;83.73
19114;BME280;9689;51.052;13.772;2023-07-30T16:01:31;99832.31;;;18.56;83.53
19114;BME280;9689;51.052;13.772;2023-07-30T16:06:33;99840.00;;;18.75;84.33
19114;BME280;9689;51.052;13.772;2023-07-30T16:11:34;99852.72;;;18.82;82.62
19114;BME280;9689;51.052;13.772;2023-07-30T16:16:39;99858.88;;;19.11;82.09
19114;BME280;9689;51.052;13.772;2023-07-30T16:21:41;99839.69;;;19.22;81.56
19114;BME280;9689;51.052;13.772;2023-07-30T16:26:46;99856.78;;;19.16;79.77
19114;BME280;9689;51.052;13.772;2023-07-30T16:31:48;99854.59;;;19.09;80.34
19114;BME280;9689;51.052;13.772;2023-07-30T16:36:49;99854.03;;;19.32;80.12
19114;BME280;9689;51.052;13.772;2023-07-30T16:41:49;99857.91;;;19.54;79.24
19114;BME280;9689;51.052;13.772;2023-07-30T16:46:52;99854.75;;;19.48;79.27
19114;BME280;9689;51.052;13.772;2023-07-30T16:51:53;99856.72;;;19.45;79.58
19114;BME280;9689;51.052;13.772;2023-07-30T16:56:55;99868.50;;;19.54;79.08
19114;BME280;9689;51.052;13.772;2023-07-30T17:01:57;99878.06;;;19.42;79.67
19114;BME280;9689;51.052;13.772;2023-07-30T17:06:59;99892.31;;;19.11;80.24
19114;BME280;9689;51.052;13.772;2023-07-30T17:12:02;99900.91;;;19.00;79.46
19114;BME280;9689;51.052;13.772;2023-07-30T17:17:05;99898.75;;;18.92;76.56
19114;BME280;9689;51.052;13.772;2023-07-30T17:22:06;99914.78;;;18.89;76.17
19114;BME280;9689;51.052;13.772;2023-07-30T17:27:08;99911.00;;;18.79;77.09
19114;BME280;9689;51.052;13.772;2023-07-30T17:32:14;99938.59;;;18.74;75.58
19114;BME280;9689;51.052;13.772;2023-07-30T17:37:16;99952.25;;;18.66;76.34
19114;BME280;9689;51.052;13.772;2023-07-30T17:42:17;99959.34;;;18.50;76.45
19114;BME280;9689;51.052;13.772;2023-07-30T17:47:21;99981.94;;;18.24;78.42
19114;BME280;9689;51.052;13.772;2023-07-30T17:52:22;100005.22;;;17.68;84.01
19114;BME280;9689;51.052;13.772;2023-07-30T17:57:23;100006.44;;;17.45;85.02
19114;BME280;9689;51.052;13.772;2023-07-30T18:02:29;100020.19;;;17.35;83.00
19114;BME280;9689;51.052;13.772;2023-07-30T18:07:30;100024.38;;;17.39;82.22
19114;BME280;9689;51.052;13.772;2023-07-30T18:12:32;100027.00;;;17.39;82.45
19114;BME280;9689;51.052;13.772;2023-07-30T18:17:35;100040.22;;;17.37;82.02
19114;BME280;9689;51.052;13.772;2023-07-30T18:22:36;100032.28;;;17.39;79.94
19114;BME280;9689;51.052;13.772;2023-07-30T18:27:37;100035.53;;;17.27;79.92
19114;BME280;9689;51.052;13.772;2023-07-30T18:32:39;100055.75;;;17.26;79.84
19114;BME280;9689;51.052;13.772;2023-07-30T18:37:40;100055.75;;;17.26;79.07
19114;BME280;9689;51.052;13.772;2023-07-30T18:42:41;100058.53;;;17.23;79.10
19114;BME280;9689;51.052;13.772;2023-07-30T18:47:44;100064.88;;;17.19;79.58
19114;BME280;9689;51.052;13.772;2023-07-30T18:52:45;100067.69;;;17.16;80.24
19114;BME280;9689;51.052;13.772;2023-07-30T18:57:46;100066.66;;;17.01;81.34
19114;BME280;9689;51.052;13.772;2023-07-30T19:02:48;100067.53;;;17.02;80.82
19114;BME280;9689;51.052;13.772;2023-07-30T19:07:50;100065.44;;;16.91;81.80
19114;BME280;9689;51.052;13.772;2023-07-30T19:12:51;100073.13;;;16.95;82.07
19114;BME280;9689;51.052;13.772;2023-07-30T19:17:56;100072.41;;;16.92;82.50
19114;BME280;9689;51.052;13.772;2023-07-30T19:22:56;100082.81;;;16.76;85.40
19114;BME280;9689;51.052;13.772;2023-07-30T19:27:57;100088.50;;;16.69;81.93
19114;BME280;9689;51.052;13.772;2023-07-30T19:33:00;100079.34;;;16.76;84.20
19114;BME280;9689;51.052;13.772;2023-07-30T19:38:01;100088.59;;;16.65;84.83
19114;BME280;9689;51.052;13.772;2023-07-30T19:43:02;100086.56;;;16.53;86.30
19114;BME280;9689;51.052;13.772;2023-07-30T19:48:06;100087.13;;;16.41;86.91
19114;BME280;9689;51.052;13.772;2023-07-30T19:53:07;100096.09;;;16.37;87.56
19114;BME280;9689;51.052;13.772;2023-07-30T19:58:22;100094.53;;;16.33;86.50
19114;BME280;9689;51.052;13.772;2023-07-30T20:03:26;100091.59;;;16.39;85.81
19114;BME280;9689;51.052;13.772;2023-07-30T20:08:27;100084.81;;;16.35;86.47
19114;BME280;9689;51.052;13.772;2023-07-30T20:13:28;100084.00;;;16.52;86.49
19114;BME280;9689;51.052;13.772;2023-07-30T20:18:30;100090.75;;;16.38;86.37
19114;BME280;9689;51.052;13.772;2023-07-30T20:23:31;100086.22;;;16.23;86.67
19114;BME280;9689;51.052;13.772;2023-07-30T20:28:32;100095.41;;;16.33;86.98
19114;BME280;9689;51.052;13.772;2023-07-30T20:33:35;100097.94;;;16.35;86.31
19114;BME280;9689;51.052;13.772;2023-07-30T20:38:35;100096.19;;;16.17;81.01
19114;BME280;9689;51.052;13.772;2023-07-30T20:43:36;100088.38;;;16.34;81.14
19114;BME280;9689;51.052;13.772;2023-07-30T20:48:42;100079.22;;;16.41;80.91
19114;BME280;9689;51.052;13.772;2023-07-30T20:53:43;100089.41;;;16.30;82.49
19114;BME280;9689;51.052;13.772;2023-07-30T20:58:44;100090.84;;;16.18;82.37
19114;BME280;9689;51.052;13.772;2023-07-30T21:03:46;100085.00;;;16.11;83.75
19114;BME280;9689;51.052;13.772;2023-07-30T21:08:47;100089.84;;;16.21;83.71
19114;BME280;9689;51.052;13.772;2023-07-30T21:13:48;100086.94;;;16.08;84.03
19114;BME280;9689;51.052;13.772;2023-07-30T21:18:50;100086.72;;;15.94;83.90
19114;BME280;9689;51.052;13.772;2023-07-30T21:23:51;100083.84;;;15.98;81.94
19114;BME280;9689;51.052;13.772;2023-07-30T21:28:52;100080.47;;;16.34;81.96
19114;BME280;9689;51.052;13.772;2023-07-30T21:33:54;100076.03;;;16.16;80.49
19114;BME280;9689;51.052;13.772;2023-07-30T21:38:55;100070.00;;;16.32;79.99
19114;BME280;9689;51.052;13.772;2023-07-30T21:43:55;100072.22;;;16.23;78.25
19114;BME280;9689;51.052;13.772;2023-07-30T21:48:58;100076.69;;;16.21;80.09
19114;BME280;9689;51.052;13.772;2023-07-30T21:53:58;100073.25;;;16.56;78.85
19114;BME280;9689;51.052;13.772;2023-07-30T21:58:59;100070.81;;;16.34;79.17
19114;BME280;9689;51.052;13.772;2023-07-30T22:04:01;100076.66;;;16.58;78.80
19114;BME280;9689;51.052;13.772;2023-07-30T22:09:02;100067.41;;;16.50;78.89
19114;BME280;9689;51.052;13.772;2023-07-30T22:14:03;100071.41;;;16.39;77.52
19114;BME280;9689;51.052;13.772;2023-07-30T22:19:05;100074.97;;;16.38;77.55
19114;BME280;9689;51.052;13.772;2023-07-30T22:24:06;100068.44;;;16.47;78.29
19114;BME280;9689;51.052;13.772;2023-07-30T22:29:07;100073.34;;;16.36;77.65
19114;BME280;9689;51.052;13.772;2023-07-30T22:34:09;100078.63;;;16.36;78.34
19114;BME280;9689;51.052;13.772;2023-07-30T22:39:10;100071.16;;;16.27;78.32
19114;BME280;9689;51.052;13.772;2023-07-30T22:44:11;100073.94;;;16.43;76.66
19114;BME280;9689;51.052;13.772;2023-07-30T22:49:13;100081.25;;;16.36;75.79
19114;BME280;9689;51.052;13.772;2023-07-30T22:54:14;100079.91;;;16.08;77.06
19114;BME280;9689;51.052;13.772;2023-07-30T22:59:15;100075.16;;;16.17;77.34
19114;BME280;9689;51.052;13.772;2023-07-30T23:04:17;100073.72;;;16.28;77.09
19114;BME280;9689;51.052;13.772;2023-07-30T23:09:21;100069.88;;;16.35;76.44
19114;BME280;9689;51.052;13.772;2023-07-30T23:14:22;100068.16;;;16.16;75.54
19114;BME280;9689;51.052;13.772;2023-07-30T23:19:24;100062.19;;;16.31;75.36
19114;BME280;9689;51.052;13.772;2023-07-30T23:24:25;100069.66;;;16.21;74.30
19114;BME280;9689;51.052;13.772;2023-07-30T23:29:26;100071.78;;;16.13;74.98
19114;BME280;9689;51.052;13.772;2023-07-30T23:34:28;100061.28;;;16.13;75.11
19114;BME280;9689;51.052;13.772;2023-07-30T23:39:29;100057.88;;;15.92;75.79
19114;BME280;9689;51.052;13.772;2023-07-30T23:44:30;100056.34;;;15.68;76.77
19114;BME280;9689;51.052;13.772;2023-07-30T23:49:32;100055.69;;;15.63;77.40
19114;BME280;9689;51.052;13.772;2023-07-30T23:54:33;100050.03;;;15.51;78.14
19114;BME280;9689;51.052;13.772;2023-07-30T23:59:34;100053.34;;;15.36;78.88
